Time;durP1;ratioP1;P1;durP2;ratioP2;P2;SDS_P1;SDS_P2;PMS_P1;PMS_P2;Temp;Humidity;BMP_temperature;BMP_pressure;BME280_temperature;BME280_humidity;BME280_pressure;Samples;Min_cycle;Max_cycle;Signal;HPM_P1;HPM_P2
2022/01/21 00:00:25;;;;;;;6.50;2.47;;;;;;;0.95;62.58;96303.78;5012890;28;20097;-58
2022/01/21 00:02:51;;;;;;;6.78;3.50;;;;;;;1.14;61.87;96320.38;5012912;28;20053;-58
2022/01/21 00:05:18;;;;;;;7.30;2.60;;;;;;;1.13;62.12;96316.16;5018978;28;20104;-58
2022/01/21 00:07:44;;;;;;;8.32;3.40;;;;;;;1.39;61.04;96310.66;5017218;28;20030;-58
2022/01/21 00:10:09;;;;;;;7.57;3.15;;;;;;;1.24;61.50;96305.75;5012620;28;20387;-57
2022/01/21 00:12:36;;;;;;;7.53;2.58;;;;;;;1.19;61.80;96302.97;5012756;28;20096;-57
2022/01/21 00:15:03;;;;;;;7.43;3.03;;;;;;;0.92;62.74;96315.50;5012540;28;20030;-59
2022/01/21 00:17:29;;;;;;;7.05;2.15;;;;;;;0.92;62.03;96305.03;5012115;28;20472;-58
2022/01/21 00:30:07;;;;;;;9.55;3.67;;;;;;;1.26;61.31;96305.53;5012130;28;20045;-58
2022/01/21 00:30:52;;;;;;;8.43;3.30;;;;;;;1.34;61.02;96307.06;5012305;28;20045;-58
2022/01/21 00:33:17;;;;;;;9.43;3.53;;;;;;;1.21;61.88;96314.03;5012265;28;20613;-58
2022/01/21 00:35:43;;;;;;;10.90;3.85;;;;;;;1.72;60.51;96307.66;5018453;28;20068;-58
2022/01/21 00:38:08;;;;;;;16.10;3.60;;;;;;;1.69;60.17;96330.91;5011293;28;20018;-57
2022/01/21 00:40:34;;;;;;;4.70;2.60;;;;;;;1.17;61.37;96330.41;5012073;28;20088;-58
2022/01/21 00:43:15;;;;;;;8.10;3.15;;;;;;;1.39;60.66;96304.59;5012189;28;20105;-58
2022/01/21 00:45:41;;;;;;;7.30;4.03;;;;;;;2.12;59.18;96303.78;5012095;28;20112;-57
2022/01/21 00:48:06;;;;;;;6.25;3.25;;;;;;;1.49;60.71;96329.31;5011256;28;20097;-58
2022/01/21 00:50:33;;;;;;;10.30;3.97;;;;;;;2.29;59.13;96342.28;5018397;28;20471;-58
2022/01/21 00:52:58;;;;;;;6.63;3.28;;;;;;;1.82;59.91;96323.69;5025644;28;20083;-59
2022/01/21 00:55:24;;;;;;;7.63;3.30;;;;;;;1.48;60.50;96262.13;5010383;28;20033;-59
2022/01/21 00:57:49;;;;;;;11.00;4.25;;;;;;;1.79;60.40;96312.81;5009865;28;20507;-57
2022/01/21 01:00:15;;;;;;;12.65;4.40;;;;;;;2.09;58.99;96332.03;5011837;28;20029;-58
2022/01/21 01:02:41;;;;;;;5.07;2.90;;;;;;;1.68;61.33;96324.84;5011761;28;20452;-58
2022/01/21 01:05:08;;;;;;;11.23;4.05;;;;;;;2.53;57.97;96350.28;5013516;28;20033;-57
2022/01/21 01:07:33;;;;;;;12.85;3.80;;;;;;;1.65;61.48;96355.97;5019729;28;20634;-59
2022/01/21 01:10:01;;;;;;;7.38;3.90;;;;;;;2.08;59.79;96346.19;5012301;28;20096;-57
2022/01/21 01:20:46;;;;;;;10.83;3.93;;;;;;;2.24;58.36;96338.72;4994310;28;20038;-58
2022/01/21 01:23:28;;;;;;;9.43;4.70;;;;;;;1.92;60.26;96352.03;5018079;28;20028;-58
2022/01/21 01:28:45;;;;;;;7.72;3.17;;;;;;;1.79;60.66;96344.31;4994914;28;20030;-59
2022/01/21 01:31:11;;;;;;;6.38;2.75;;;;;;;1.91;60.56;96344.41;5010011;28;20391;-58
2022/01/21 01:33:39;;;;;;;6.85;3.90;;;;;;;1.98;60.45;96343.28;5011356;28;20062;-58
2022/01/21 01:36:07;;;;;;;14.07;4.00;;;;;;;2.31;59.15;96345.50;5017441;28;20045;-58
2022/01/21 01:41:21;;;;;;;8.32;3.00;;;;;;;1.66;61.24;96352.34;5004923;28;20149;-59
2022/01/21 01:49:34;;;;;;;8.00;3.55;;;;;;;1.87;61.08;96375.50;5010414;28;20053;-58
2022/01/21 01:52:00;;;;;;;;;;;;;;;1.72;61.92;96367.19;5017861;28;20120;-59
2022/01/21 01:54:27;;;;;;;4.78;3.25;;;;;;;1.42;62.79;96378.38;5015091;28;20502;-58
2022/01/21 01:56:55;;;;;;;10.45;4.45;;;;;;;2.67;59.54;96370.09;5010539;28;20100;-59
2022/01/21 01:59:21;;;;;;;13.50;4.57;;;;;;;2.32;59.60;96378.63;5009163;28;20156;-57
2022/01/21 02:02:12;;;;;;;12.43;4.47;;;;;;;2.08;60.66;96377.69;5010935;28;20113;-58
2022/01/21 02:04:37;;;;;;;14.70;4.00;;;;;;;1.55;61.93;96375.63;5009100;28;20506;-57
2022/01/21 02:07:03;;;;;;;11.00;3.60;;;;;;;1.84;61.09;96373.31;5029627;23;20034;-62
2022/01/21 02:09:29;;;;;;;6.68;3.78;;;;;;;1.69;60.61;96331.72;5010141;28;20380;-62
2022/01/21 02:11:55;;;;;;;7.45;3.38;;;;;;;1.64;60.84;96351.72;5009206;28;20582;-62
2022/01/21 02:14:27;;;;;;;6.45;3.20;;;;;;;1.67;60.60;96353.94;5009095;28;20267;-62
2022/01/21 02:22:09;;;;;;;13.27;4.28;;;;;;;1.73;61.51;96363.53;5011776;28;20450;-62
2022/01/21 02:24:45;;;;;;;6.28;2.50;;;;;;;1.22;62.20;96333.97;5014477;28;20666;-62
2022/01/21 02:27:11;;;;;;;4.28;2.85;;;;;;;1.36;61.57;96312.91;4990182;28;20018;-62
2022/01/21 02:29:45;;;;;;;9.32;2.78;;;;;;;1.43;61.07;96331.97;4990353;28;20034;-63
2022/01/21 02:32:10;;;;;;;7.55;3.60;;;;;;;1.50;61.39;96312.53;4990497;28;20035;-62
2022/01/21 02:34:36;;;;;;;11.75;3.45;;;;;;;1.85;60.86;96340.81;4992733;28;20041;-62
2022/01/21 02:37:02;;;;;;;13.70;3.83;;;;;;;1.38;60.82;96323.94;5017582;28;20079;-62
2022/01/21 02:39:27;;;;;;;11.60;3.60;;;;;;;1.66;60.73;96313.00;5014873;28;20045;-62
2022/01/21 02:41:53;;;;;;;7.82;3.25;;;;;;;1.33;61.13;96327.22;5009565;28;20034;-62
2022/01/21 02:44:19;;;;;;;9.50;3.22;;;;;;;1.67;61.08;96348.69;5009944;28;20029;-61
2022/01/21 02:46:46;;;;;;;10.93;2.72;;;;;;;1.42;61.62;96336.41;5008107;28;20022;-61
2022/01/21 02:49:11;;;;;;;9.85;3.20;;;;;;;1.71;60.47;96352.47;5009498;28;20049;-62
2022/01/21 02:51:37;;;;;;;12.77;3.53;;;;;;;1.52;60.55;96331.47;5016044;28;20387;-62
2022/01/21 02:54:04;;;;;;;8.55;3.55;;;;;;;1.25;61.73;96319.66;5015218;28;20033;-62
2022/01/21 02:56:30;;;;;;;5.57;3.33;;;;;;;1.69;60.27;96347.47;5008075;28;20029;-61
2022/01/21 02:58:56;;;;;;;7.38;3.67;;;;;;;1.64;59.99;96322.88;5009597;28;20487;-61
2022/01/21 03:01:22;;;;;;;10.75;3.65;;;;;;;1.34;61.23;96326.22;5009787;28;20430;-61
2022/01/21 03:03:48;;;;;;;14.25;4.13;;;;;;;2.09;59.89;96363.53;5009682;28;20034;-61
2022/01/21 03:06:15;;;;;;;11.40;4.47;;;;;;;2.12;59.52;96364.13;5015878;28;20029;-62
2022/01/21 03:08:43;;;;;;;12.63;4.38;;;;;;;2.05;60.07;96362.41;5014459;28;20041;-62
2022/01/21 03:11:08;;;;;;;9.73;3.70;;;;;;;1.73;59.88;96353.84;4990027;28;20034;-62
2022/01/21 03:13:34;;;;;;;9.00;3.65;;;;;;;1.60;60.63;96330.41;4990032;28;20377;-62
2022/01/21 03:15:59;;;;;;;11.27;3.08;;;;;;;1.28;60.85;96330.50;4988652;28;20038;-62
2022/01/21 03:18:25;;;;;;;12.30;4.60;;;;;;;1.60;59.78;96326.97;4987919;28;20187;-62
2022/01/21 03:20:50;;;;;;;6.65;2.70;;;;;;;1.19;61.47;96320.53;5000462;28;20080;-62
2022/01/21 03:23:18;;;;;;;10.80;3.58;;;;;;;1.95;59.88;96374.44;5016133;28;20029;-62
2022/01/21 03:25:46;;;;;;;8.95;3.33;;;;;;;1.70;60.65;96390.22;5009317;28;20049;-62
2022/01/21 03:28:12;;;;;;;9.38;3.65;;;;;;;2.11;59.87;96376.47;5008747;28;20026;-61
2022/01/21 03:30:39;;;;;;;6.75;2.80;;;;;;;1.37;60.42;96354.63;5008223;28;20072;-62
2022/01/21 03:33:05;;;;;;;7.25;3.05;;;;;;;1.67;61.23;96383.56;5009404;28;20421;-61
2022/01/21 03:35:31;;;;;;;8.45;3.25;;;;;;;1.97;59.56;96354.00;5014396;28;20037;-61
2022/01/21 03:37:56;;;;;;;12.43;3.13;;;;;;;1.83;60.02;96364.63;5015318;28;20025;-62
2022/01/21 03:40:22;;;;;;;8.32;3.45;;;;;;;1.97;59.29;96370.56;5009039;28;20029;-61
2022/01/21 03:42:47;;;;;;;12.98;3.55;;;;;;;1.85;59.60;96385.44;5009202;28;20110;-62
2022/01/21 03:45:14;;;;;;;8.27;3.83;;;;;;;1.69;60.29;96375.47;5009509;28;20034;-64
2022/01/21 03:47:40;;;;;;;9.38;3.88;;;;;;;1.68;60.86;96393.03;5007950;28;20470;-61
2022/01/21 03:50:30;;;;;;;8.13;3.88;;;;;;;2.03;59.33;96369.66;5010593;28;20032;-61
2022/01/21 03:52:54;;;;;;;9.10;3.78;;;;;;;2.07;60.31;96370.03;5017501;28;20250;-61
2022/01/21 03:55:19;;;;;;;5.55;3.58;;;;;;;1.90;60.55;96385.56;5007722;28;20025;-61
2022/01/21 03:57:44;;;;;;;7.75;3.92;;;;;;;1.96;60.43;96397.03;5007861;28;20022;-61
2022/01/21 04:00:15;;;;;;;6.90;3.08;;;;;;;1.40;61.92;96396.13;5007105;28;20110;-61
2022/01/21 04:02:40;;;;;;;9.32;3.67;;;;;;;1.62;60.51;96359.81;5009113;28;20033;-61
2022/01/21 04:05:06;;;;;;;5.47;2.78;;;;;;;1.17;62.42;96360.03;5007263;28;20025;-60
2022/01/21 04:07:31;;;;;;;8.25;3.00;;;;;;;1.07;62.81;96348.44;5015895;28;20026;-61
2022/01/21 04:09:57;;;;;;;6.55;3.80;;;;;;;0.99;62.37;96331.16;5012251;28;20040;-61
2022/01/21 04:12:22;;;;;;;7.38;3.03;;;;;;;1.01;62.99;96345.63;5012804;28;20037;-60
2022/01/21 04:14:47;;;;;;;7.95;4.28;;;;;;;1.05;62.72;96325.06;5011177;28;20034;-61
2022/01/21 04:17:13;;;;;;;5.95;3.08;;;;;;;0.90;64.03;96358.63;5012172;28;20386;-61
2022/01/21 04:19:39;;;;;;;9.88;3.83;;;;;;;0.89;63.22;96325.59;5012183;28;20022;-61
2022/01/21 04:22:04;;;;;;;7.80;2.53;;;;;;;0.92;63.94;96383.63;5018865;28;20014;-61
2022/01/21 04:24:30;;;;;;;7.03;3.13;;;;;;;1.06;63.77;96367.78;5012289;28;20387;-61
2022/01/21 04:26:55;;;;;;;14.18;4.30;;;;;;;1.70;62.53;96398.09;5011680;28;20101;-61
2022/01/21 04:29:20;;;;;;;9.13;3.40;;;;;;;1.15;62.81;96362.06;5012174;28;20026;-61
2022/01/21 04:31:46;;;;;;;7.43;3.97;;;;;;;1.50;62.57;96396.44;5010930;28;20024;-61
2022/01/21 04:34:11;;;;;;;7.45;3.92;;;;;;;1.44;62.21;96378.16;5012191;28;20732;-62
2022/01/21 04:36:37;;;;;;;11.77;4.65;;;;;;;1.81;62.10;96369.31;5017520;28;20036;-61
2022/01/21 04:39:04;;;;;;;6.97;3.95;;;;;;;1.19;63.56;96389.47;5017461;28;20044;-61
2022/01/21 04:49:29;;;;;;;9.00;2.95;;;;;;;0.61;63.52;96290.13;5011983;28;20041;-61
2022/01/21 04:52:04;;;;;;;13.00;4.18;;;;;;;1.65;63.38;96418.94;5017128;28;20037;-61
2022/01/21 04:54:31;;;;;;;5.90;3.53;;;;;;;1.07;63.58;96379.88;5012168;28;20099;-61
2022/01/21 04:56:56;;;;;;;9.07;4.65;;;;;;;1.56;63.38;96406.06;5011549;28;20030;-61
2022/01/21 04:59:21;;;;;;;7.38;4.45;;;;;;;1.16;63.06;96313.88;5010327;28;20270;-61
2022/01/21 05:01:47;;;;;;;14.18;5.00;;;;;;;1.99;61.72;96392.13;5011977;28;20434;-61
2022/01/21 05:04:13;;;;;;;10.73;4.55;;;;;;;2.39;60.44;96415.28;5010652;28;20498;-61
2022/01/21 05:06:40;;;;;;;9.82;4.00;;;;;;;1.29;63.20;96405.50;5015850;28;20037;-61
2022/01/21 05:09:05;;;;;;;5.93;3.20;;;;;;;0.82;63.88;96380.66;5018054;28;20173;-61
2022/01/21 05:11:35;;;;;;;8.82;4.55;;;;;;;1.53;63.57;96437.97;5011513;28;20446;-61
2022/01/21 05:14:13;;;;;;;8.93;4.97;;;;;;;1.69;62.07;96378.94;5011640;28;20037;-61
2022/01/21 05:16:45;;;;;;;9.07;4.47;;;;;;;1.82;61.49;96402.41;5009819;28;20069;-60
2022/01/21 05:19:15;;;;;;;8.90;4.07;;;;;;;1.81;61.96;96411.28;5010516;28;20148;-62
2022/01/21 05:21:45;;;;;;;13.40;4.85;;;;;;;2.33;61.05;96437.19;5017718;28;20029;-61
2022/01/21 05:24:12;;;;;;;10.73;4.35;;;;;;;1.68;62.05;96442.06;5016496;28;20018;-61
2022/01/21 05:26:41;;;;;;;7.68;4.10;;;;;;;1.85;62.15;96421.34;5009577;28;20037;-61
2022/01/21 05:29:11;;;;;;;11.55;4.38;;;;;;;1.79;61.38;96402.84;5011121;28;20099;-61
2022/01/21 05:31:37;;;;;;;8.80;4.53;;;;;;;2.09;60.38;96409.97;5011332;28;20145;-61
2022/01/21 05:34:03;;;;;;;10.10;4.10;;;;;;;2.20;59.94;96427.66;5011066;28;20108;-61
2022/01/21 05:36:31;;;;;;;9.88;4.93;;;;;;;2.22;60.89;96435.28;5014109;28;20040;-61
2022/01/21 05:38:58;;;;;;;13.07;4.68;;;;;;;2.26;59.74;96432.00;5019398;28;20049;-61
2022/01/21 05:41:24;;;;;;;9.93;4.80;;;;;;;2.35;59.95;96448.25;5017061;28;20024;-61
2022/01/21 05:43:59;;;;;;;21.10;3.42;;;;;;;1.69;61.63;96468.13;5011092;28;20026;-61
2022/01/21 05:46:54;;;;;;;9.02;3.35;;;;;;;1.65;60.71;96440.69;5010724;28;20026;-61
2022/01/21 05:49:16;;;;;;;11.00;4.40;;;;;;;2.00;60.37;96429.69;5010713;28;20064;-62
2022/01/21 05:51:42;;;;;;;9.60;3.15;;;;;;;1.94;59.87;96475.13;5017480;28;20437;-61
2022/01/21 05:54:08;;;;;;;7.65;4.60;;;;;;;2.02;59.48;96427.63;5009486;28;20422;-61
2022/01/21 05:56:34;;;;;;;5.18;2.72;;;;;;;1.55;60.49;96456.94;5009067;28;20042;-61
2022/01/21 05:59:00;;;;;;;7.13;3.38;;;;;;;2.02;59.27;96465.16;5010721;28;20088;-61
2022/01/21 06:01:29;;;;;;;12.57;4.05;;;;;;;2.41;57.66;96459.72;5010900;28;20029;-61
2022/01/21 06:03:54;;;;;;;10.38;3.45;;;;;;;3.26;55.29;96478.03;5009457;28;20030;-61
2022/01/21 06:06:19;;;;;;;7.68;2.85;;;;;;;1.58;58.49;96500.25;5013978;28;20037;-61
2022/01/21 06:08:45;;;;;;;8.18;2.95;;;;;;;1.86;58.71;96472.81;5018406;28;20042;-61
2022/01/21 06:11:10;;;;;;;6.75;2.53;;;;;;;1.70;59.59;96514.31;5009232;28;20048;-61
2022/01/21 06:13:37;;;;;;;6.32;2.53;;;;;;;2.01;58.67;96512.63;5009402;28;20116;-61
2022/01/21 06:16:02;;;;;;;8.60;3.30;;;;;;;1.46;60.58;96460.03;5010484;28;20122;-60
2022/01/21 06:18:28;;;;;;;8.63;3.00;;;;;;;1.73;60.56;96516.47;5009830;28;20519;-62
2022/01/21 06:20:53;;;;;;;6.97;3.30;;;;;;;1.46;60.17;96487.03;5010360;28;20041;-62
2022/01/21 06:23:19;;;;;;;5.72;2.70;;;;;;;1.87;59.89;96501.44;5019058;28;20113;-62
2022/01/21 06:25:45;;;;;;;6.38;2.85;;;;;;;1.39;59.70;96470.56;5013026;28;20487;-62
2022/01/21 06:28:11;;;;;;;10.82;3.38;;;;;;;2.38;58.39;96481.16;5009569;28;20057;-61
2022/01/21 06:30:37;;;;;;;6.40;3.42;;;;;;;2.54;57.71;96517.34;5008727;28;20030;-62
2022/01/21 06:33:02;;;;;;;11.20;3.17;;;;;;;2.26;57.71;96521.28;5010371;28;20022;-62
2022/01/21 06:35:27;;;;;;;8.82;3.13;;;;;;;2.45;57.30;96524.69;5009657;28;20506;-62
2022/01/21 06:37:53;;;;;;;10.43;3.65;;;;;;;2.82;55.75;96496.63;5014756;28;20026;-62
2022/01/21 06:40:20;;;;;;;9.57;3.28;;;;;;;3.49;55.16;96541.22;5008297;28;20368;-61
2022/01/21 06:42:49;;;;;;;5.72;2.75;;;;;;;3.15;55.48;96537.44;5009703;28;20029;-61
2022/01/21 06:45:14;;;;;;;9.65;3.20;;;;;;;4.02;53.69;96535.13;5008592;28;20045;-62
2022/01/21 06:47:40;;;;;;;8.43;3.53;;;;;;;4.03;52.89;96536.72;5009106;28;20026;-66
2022/01/21 06:50:06;;;;;;;10.77;3.35;;;;;;;4.00;53.69;96510.88;5009418;28;20041;-62
2022/01/21 06:52:31;;;;;;;8.88;3.35;;;;;;;3.67;53.32;96553.50;5013158;28;20048;-60
2022/01/21 06:54:58;;;;;;;12.25;3.10;;;;;;;3.38;54.00;96555.16;5009352;28;20030;-60
2022/01/21 06:57:24;;;;;;;13.65;3.13;;;;;;;2.60;55.41;96522.50;5007774;28;20472;-60
2022/01/21 06:59:50;;;;;;;11.23;3.50;;;;;;;2.18;56.88;96529.41;5009334;28;20026;-60
2022/01/21 07:02:18;;;;;;;8.27;3.15;;;;;;;2.17;56.69;96527.81;5009392;28;20026;-61
2022/01/21 07:04:48;;;;;;;7.45;3.10;;;;;;;1.92;56.71;96503.44;5009415;28;20097;-60
2022/01/21 07:07:14;;;;;;;8.73;3.60;;;;;;;1.96;57.40;96499.34;5015312;28;20030;-61
2022/01/21 07:09:40;;;;;;;7.38;3.38;;;;;;;2.16;56.70;96509.69;5014842;28;20088;-61
2022/01/21 07:12:06;;;;;;;10.70;3.53;;;;;;;1.66;57.15;96501.81;5007913;28;20022;-60
2022/01/21 07:14:31;;;;;;;12.20;4.20;;;;;;;2.01;56.50;96508.19;5009471;28;20468;-63
2022/01/21 07:16:57;;;;;;;7.15;2.90;;;;;;;1.84;56.03;96543.84;5007632;28;20061;-59
2022/01/21 07:19:23;;;;;;;13.45;3.85;;;;;;;2.32;55.51;96543.22;5009179;28;20036;-60
2022/01/21 07:21:48;;;;;;;13.43;5.03;;;;;;;1.37;57.60;96475.19;5014335;28;20140;-60
2022/01/21 07:24:14;;;;;;;11.35;3.90;;;;;;;1.29;56.79;96478.09;5020200;28;20029;-59
2022/01/21 07:26:39;;;;;;;13.13;4.35;;;;;;;1.65;56.75;96497.59;5010197;28;20515;-60
2022/01/21 07:29:05;;;;;;;9.98;4.63;;;;;;;1.70;57.43;96540.53;5007732;28;20048;-59
2022/01/21 07:31:31;;;;;;;15.75;5.28;;;;;;;2.28;57.34;96589.31;5009431;28;20391;-61
2022/01/21 07:33:58;;;;;;;11.45;4.97;;;;;;;1.87;57.79;96526.88;5009746;28;20514;-60
2022/01/21 07:36:25;;;;;;;15.68;5.05;;;;;;;2.92;56.31;96592.50;5008363;28;20084;-60
2022/01/21 07:38:50;;;;;;;10.75;4.70;;;;;;;1.94;58.86;96586.16;5015504;28;20033;-60
2022/01/21 07:41:16;;;;;;;11.95;4.60;;;;;;;1.44;61.14;96586.09;5008259;28;20029;-60
2022/01/21 07:43:41;;;;;;;13.40;4.80;;;;;;;1.88;60.01;96562.59;5013064;28;20080;-60
2022/01/21 07:46:06;;;;;;;7.65;3.85;;;;;;;1.86;60.17;96593.50;5013096;28;20032;-60
2022/01/21 07:48:32;;;;;;;10.57;3.97;;;;;;;1.23;61.72;96578.56;5010922;28;20498;-60
2022/01/21 07:50:57;;;;;;;12.13;4.28;;;;;;;1.56;61.44;96600.13;5012382;28;20656;-60
2022/01/21 07:53:23;;;;;;;11.50;4.15;;;;;;;1.29;62.25;96596.06;5019761;28;20026;-60
2022/01/21 07:55:50;;;;;;;15.95;4.90;;;;;;;1.85;60.11;96597.16;5011362;28;20037;-60
2022/01/21 07:58:16;;;;;;;9.23;4.28;;;;;;;1.46;61.26;96599.00;5011306;28;20034;-60
2022/01/21 08:00:42;;;;;;;13.98;4.40;;;;;;;1.10;60.77;96534.06;5012663;28;20079;-60
2022/01/21 08:03:07;;;;;;;12.18;5.03;;;;;;;2.03;59.33;96600.63;5012928;28;20113;-61
2022/01/21 08:05:34;;;;;;;15.95;4.90;;;;;;;1.83;59.59;96589.47;5012620;28;20034;-60
2022/01/21 08:08:00;;;;;;;14.90;6.22;;;;;;;2.24;58.62;96596.00;5017434;28;20116;-61
2022/01/21 08:10:27;;;;;;;12.30;5.00;;;;;;;1.94;59.51;96573.03;5011100;28;20021;-61
2022/01/21 08:12:52;;;;;;;11.18;3.50;;;;;;;1.26;61.31;96588.59;5012587;28;20029;-62
2022/01/21 08:15:18;;;;;;;13.27;4.53;;;;;;;1.37;61.10;96580.06;5011081;28;20095;-61
2022/01/21 08:17:43;;;;;;;8.02;3.65;;;;;;;0.78;62.39;96574.09;5012318;28;20053;-60
2022/01/21 08:20:09;;;;;;;10.63;3.50;;;;;;;0.01;62.59;96485.09;5010903;28;20607;-60
2022/01/21 08:22:35;;;;;;;16.92;4.55;;;;;;;1.38;61.98;96593.97;5017959;28;20061;-60
2022/01/21 08:25:00;;;;;;;15.57;4.32;;;;;;;1.49;60.53;96596.75;5019503;28;20035;-60
2022/01/21 08:27:26;;;;;;;13.60;4.25;;;;;;;1.40;60.54;96553.44;5011977;28;20033;-60
2022/01/21 08:29:51;;;;;;;15.77;3.80;;;;;;;1.07;61.74;96558.84;5011988;28;20026;-60
2022/01/21 08:32:17;;;;;;;14.50;4.45;;;;;;;1.10;61.38;96537.47;5011048;28;20493;-59
2022/01/21 08:34:43;;;;;;;13.75;4.40;;;;;;;1.81;59.81;96531.16;5010997;28;20026;-59
2022/01/21 08:37:09;;;;;;;5.22;2.80;;;;;;;0.80;60.70;96515.47;5013454;28;20106;-61
2022/01/21 08:39:34;;;;;;;12.32;3.90;;;;;;;1.43;60.10;96570.56;5015041;28;20026;-60
2022/01/21 08:42:00;;;;;;;8.07;3.72;;;;;;;1.52;60.55;96598.13;5011843;28;20037;-61
2022/01/21 08:44:25;;;;;;;14.40;4.22;;;;;;;1.97;57.91;96522.75;5012004;28;20109;-60
2022/01/21 08:46:50;;;;;;;9.57;4.00;;;;;;;1.62;58.82;96563.59;5011468;28;20476;-60
2022/01/21 08:49:19;;;;;;;13.95;3.97;;;;;;;2.49;56.68;96525.88;5011669;28;20033;-60
2022/01/21 08:51:51;;;;;;;8.43;3.97;;;;;;;3.01;55.47;96528.09;5011671;28;20113;-60
2022/01/21 08:54:17;;;;;;;;;;;;;;;2.14;58.20;96595.69;5017747;28;20037;-61
2022/01/21 08:56:44;;;;;;;11.77;3.35;;;;;;;1.60;59.48;96550.69;5009832;28;19913;-61
2022/01/21 08:59:09;;;;;;;7.60;3.67;;;;;;;1.59;58.96;96538.59;5009932;28;20037;-61
2022/01/21 09:01:35;;;;;;;6.05;2.40;;;;;;;1.46;59.27;96599.78;5011903;28;20026;-60
2022/01/21 09:04:00;;;;;;;21.75;3.92;;;;;;;1.58;60.06;96584.19;5010300;28;20105;-60
2022/01/21 09:06:29;;;;;;;13.07;5.45;;;;;;;1.70;59.75;96595.63;5010882;28;20103;-60
2022/01/21 09:08:59;;;;;;;8.07;3.30;;;;;;;1.60;58.72;96563.81;5016812;28;20030;-61
2022/01/21 09:11:24;;;;;;;16.25;4.35;;;;;;;2.21;58.21;96581.50;5015849;28;20040;-62
2022/01/21 09:13:50;;;;;;;18.20;4.70;;;;;;;2.25;56.98;96587.09;5010160;28;20034;-61
2022/01/21 09:16:17;;;;;;;11.40;4.35;;;;;;;1.56;58.38;96576.53;5011131;28;20025;-61
2022/01/21 09:18:55;;;;;;;8.55;3.90;;;;;;;2.09;57.52;96601.59;5009675;28;20404;-61
2022/01/21 09:21:23;;;;;;;9.52;4.07;;;;;;;1.54;59.09;96601.38;5009786;28;20121;-62
2022/01/21 09:23:49;;;;;;;18.30;5.13;;;;;;;2.19;57.55;96573.03;5017848;28;20029;-62
2022/01/21 09:26:20;;;;;;;8.77;4.32;;;;;;;2.23;57.60;96586.53;5017929;28;20034;-62
2022/01/21 09:28:46;;;;;;;14.00;3.40;;;;;;;1.52;58.00;96591.06;5010782;28;20026;-62
2022/01/21 09:31:13;;;;;;;12.63;4.53;;;;;;;3.17;54.59;96606.34;5010046;28;20026;-62
2022/01/21 09:33:39;;;;;;;9.80;4.18;;;;;;;2.01;57.44;96601.88;5011180;28;20037;-60
2022/01/21 09:36:05;;;;;;;11.30;4.65;;;;;;;2.26;56.98;96567.75;5009664;28;20038;-60
2022/01/21 09:38:30;;;;;;;7.90;3.60;;;;;;;2.98;55.19;96600.34;5016617;28;20040;-60
2022/01/21 09:40:56;;;;;;;16.77;3.70;;;;;;;2.72;55.69;96611.13;5010894;28;20097;-60
2022/01/21 09:43:23;;;;;;;18.23;4.65;;;;;;;2.63;56.05;96589.59;5011173;28;20065;-60
2022/01/21 09:45:52;;;;;;;15.20;4.40;;;;;;;2.85;54.65;96555.78;5011301;28;20104;-60
2022/01/21 09:48:28;;;;;;;4.97;2.40;;;;;;;1.90;56.25;96558.75;5010674;28;20033;-59
2022/01/21 09:50:58;;;;;;;10.00;2.67;;;;;;;1.85;57.04;96613.69;5010523;28;20033;-63
2022/01/21 09:53:28;;;;;;;8.27;2.92;;;;;;;1.88;56.75;96621.13;5015780;28;20113;-60
2022/01/21 09:55:59;;;;;;;22.25;2.85;;;;;;;1.97;56.57;96601.47;5016055;28;20030;-60
2022/01/21 09:58:29;;;;;;;12.70;3.10;;;;;;;2.27;54.61;96587.72;5010428;28;20088;-62
2022/01/21 10:01:00;;;;;;;8.93;2.63;;;;;;;1.81;55.71;96589.69;5010519;28;20472;-60
2022/01/21 10:03:26;;;;;;;9.48;2.97;;;;;;;2.32;54.87;96611.50;5010629;28;20065;-60
2022/01/21 10:05:53;;;;;;;8.73;2.35;;;;;;;2.09;55.30;96633.06;5010272;28;20034;-60
2022/01/21 10:08:21;;;;;;;5.57;1.90;;;;;;;2.24;54.18;96588.13;5015169;28;20464;-62
2022/01/21 10:10:47;;;;;;;4.50;2.38;;;;;;;2.37;54.96;96621.38;5017060;28;20454;-60
2022/01/21 10:13:16;;;;;;;10.15;3.15;;;;;;;2.76;53.28;96570.25;5010566;28;20065;-60
2022/01/21 10:15:41;;;;;;;11.43;2.97;;;;;;;2.63;54.10;96620.31;5010357;28;20029;-64
2022/01/21 10:18:13;;;;;;;11.18;3.00;;;;;;;2.48;54.18;96612.78;5008625;28;20080;-62
2022/01/21 10:20:55;;;;;;;10.88;3.40;;;;;;;3.04;51.64;96612.59;5010202;28;20061;-61
2022/01/21 10:23:20;;;;;;;4.03;2.08;;;;;;;1.58;54.99;96588.63;5016575;28;20065;-61
2022/01/21 10:25:56;;;;;;;5.45;1.80;;;;;;;1.69;55.55;96637.78;5009892;28;20068;-60
2022/01/21 10:28:22;;;;;;;12.82;3.83;;;;;;;2.63;53.72;96575.66;5009925;28;20026;-59
2022/01/21 10:30:51;;;;;;;10.15;3.13;;;;;;;3.44;49.78;96548.19;5010168;28;20026;-58
2022/01/21 10:33:25;;;;;;;11.35;3.80;;;;;;;4.16;49.81;96609.47;5009109;28;20030;-58
2022/01/21 10:36:06;;;;;;;11.48;3.78;;;;;;;4.97;49.56;96623.66;5009804;28;20120;-62
2022/01/21 10:38:39;;;;;;;12.23;3.83;;;;;;;4.79;49.28;96629.06;5009305;28;20025;-61
2022/01/21 10:41:06;;;;;;;7.40;2.90;;;;;;;4.34;49.74;96633.06;5009511;28;20068;-63
2022/01/21 10:43:33;;;;;;;10.52;3.15;;;;;;;3.05;50.39;96550.31;5008746;28;20455;-62
2022/01/21 10:45:59;;;;;;;5.55;2.10;;;;;;;3.63;50.11;96641.78;5009879;28;20050;-59
2022/01/21 10:48:28;;;;;;;8.85;2.90;;;;;;;2.62;52.86;96634.47;5009496;28;20033;-62
2022/01/21 10:51:25;;;;;;;12.27;5.22;;;;;;;3.44;52.10;96637.63;5009791;28;20017;-61
2022/01/21 10:53:51;;;;;;;6.68;2.38;;;;;;;2.00;54.20;96598.44;5016045;28;20477;-60
2022/01/21 10:56:18;;;;;;;4.85;1.90;;;;;;;1.57;53.40;96506.53;5016145;28;20044;-60
2022/01/21 10:58:54;;;;;;;11.50;2.55;;;;;;;2.30;53.70;96622.22;5009671;28;20551;-60
2022/01/21 11:01:27;;;;;;;10.82;3.05;;;;;;;3.42;51.82;96602.81;5009662;28;20046;-61
2022/01/21 11:04:12;;;;;;;8.57;3.10;;;;;;;3.00;51.37;96621.94;5008076;28;20128;-61
2022/01/21 11:06:57;;;;;;;11.85;2.55;;;;;;;3.57;52.61;96627.72;5009373;28;20037;-60
2022/01/21 11:09:29;;;;;;;9.45;2.92;;;;;;;3.21;48.19;96633.81;5013111;28;20087;-62
2022/01/21 11:12:07;;;;;;;15.90;2.97;;;;;;;3.03;48.88;96568.94;5009690;28;20091;-62
2022/01/21 11:14:34;;;;;;;6.93;2.55;;;;;;;2.60;51.49;96624.97;5009636;28;20034;-64
2022/01/21 11:17:08;;;;;;;11.15;3.20;;;;;;;2.35;51.44;96576.91;5010947;28;20030;-64
2022/01/21 11:19:35;;;;;;;9.18;2.88;;;;;;;2.43;50.95;96573.22;5013745;28;20053;-66
2022/01/21 11:22:04;;;;;;;7.05;2.17;;;;;;;1.59;52.29;96541.22;5013361;28;20022;-63
2022/01/21 11:24:31;;;;;;;8.48;2.35;;;;;;;2.17;51.54;96595.28;5017089;28;20033;-60
2022/01/21 11:27:07;;;;;;;7.63;2.30;;;;;;;2.49;52.58;96604.66;5014243;28;20090;-61
2022/01/21 11:29:34;;;;;;;10.88;2.92;;;;;;;2.25;52.02;96545.94;5013191;28;20076;-59
2022/01/21 11:32:00;;;;;;;12.75;3.03;;;;;;;2.63;50.49;96512.59;5013532;28;20022;-60
2022/01/21 11:34:26;;;;;;;10.05;3.75;;;;;;;3.08;50.35;96523.59;5012925;28;20444;-60
2022/01/21 11:36:53;;;;;;;7.20;2.58;;;;;;;0.92;52.35;96383.63;5010686;28;20125;-60
2022/01/21 11:39:24;;;;;;;7.68;2.50;;;;;;;1.27;51.88;96448.66;5012613;28;20071;-61
2022/01/21 11:41:51;;;;;;;9.32;3.00;;;;;;;2.58;52.21;96598.13;5012968;28;20022;-62
2022/01/21 11:44:21;;;;;;;9.45;3.45;;;;;;;3.28;48.82;96528.56;5013010;28;20156;-60
2022/01/21 11:47:13;;;;;;;8.50;2.67;;;;;;;3.37;49.04;96580.63;5012602;28;20208;-61
2022/01/21 11:49:42;;;;;;;7.78;1.92;;;;;;;2.93;49.38;96609.91;5012738;28;20761;-60
2022/01/21 11:52:18;;;;;;;9.60;2.80;;;;;;;0.95;51.08;96325.53;5012628;28;20030;-60
2022/01/21 11:54:45;;;;;;;12.30;2.10;;;;;;;1.24;49.96;96362.63;5019492;28;20029;-60
2022/01/21 11:57:12;;;;;;;9.55;2.67;;;;;;;0.78;50.88;96304.31;5019101;28;20029;-60
2022/01/21 12:02:33;;;;;;;16.58;3.45;;;;;;;2.54;49.77;96438.53;5012801;28;20093;-60
2022/01/21 12:05:07;;;;;;;5.32;2.00;;;;;;;2.90;49.26;96566.44;5012713;28;20042;-60
2022/01/21 12:07:41;;;;;;;9.68;2.40;;;;;;;2.44;51.01;96582.69;5011959;28;20026;-60
2022/01/21 12:10:13;;;;;;;8.63;1.85;;;;;;;1.91;50.11;96484.25;5017892;28;20020;-60
2022/01/21 12:13:09;;;;;;;10.23;2.92;;;;;;;3.46;47.56;96570.59;5012284;28;20026;-60
2022/01/21 12:15:39;;;;;;;8.73;2.05;;;;;;;3.97;46.36;96566.59;4992777;28;20565;-60
2022/01/21 12:21:05;;;;;;;7.72;2.20;;;;;;;3.15;46.68;96534.00;4992688;28;20024;-62
2022/01/21 12:23:44;;;;;;;8.93;2.67;;;;;;;3.76;46.55;96548.72;5009302;28;20079;-61
2022/01/21 12:26:16;;;;;;;5.68;2.20;;;;;;;3.68;46.30;96528.78;5018109;28;20029;-61
2022/01/21 12:29:07;;;;;;;6.82;2.60;;;;;;;4.43;45.95;96542.13;5011555;28;20379;-61